Notice: Undefined index: language in D:\xampp\htdocs\vam\index.php on line 25
Open Air Virtual

 METAR AND TAF INFORMATION
METAR FOR ESGG
ADDS - METARS form results

(1444 UTC 04 June 2020)
Data provider http://aviationweather.gov/metar/data/
 
METAR text: ESGG 041420Z 12012KT CAVOK 20/05 Q0997
Conditions at: ESGG (GOTEBORG/LANDVET, SE) observed 1420 UTC 04 June 2020
Temperature: 20.0°C (68°F)
Dewpoint: 5.0°C (41°F) [RH = 37%]
Pressure (altimeter): 29.44 inches Hg (997.0 mb)
Winds: from the ESE (120 degrees) at 14 MPH (12 knots; 6.2 m/s)
Visibility: 6 or more miles (10+ km)
Ceiling: ceiling and visibility are OK
Clouds: unknown
Weather: no significant weather observed at this time

METAR text: ESGG 041350Z 11013KT 080V140 CAVOK 20/04 Q0997
Conditions at: ESGG (GOTEBORG/LANDVET, SE) observed 1350 UTC 04 June 2020
Temperature: 20.0°C (68°F)
Dewpoint: 4.0°C (39°F) [RH = 35%]
Pressure (altimeter): 29.44 inches Hg (997.0 mb)
Winds: from the ESE (110 degrees) at 15 MPH (13 knots; 6.7 m/s)
Visibility: 6 or more miles (10+ km)
Ceiling: ceiling and visibility are OK
Clouds: unknown
Weather: no significant weather observed at this time

Forecast for: ESGG (GOTEBORG/LANDVET, SE)
Text: TAF ESGG 041130Z 0412/0512 10010G20KT CAVOK
Forecast period: 1200 UTC 04 June 2020 to 0900 UTC 05 June 2020
Forecast type: FROM: standard forecast or significant change
Winds: from the E (100 degrees) at 12 MPH (10 knots; 5.1 m/s)
gusting to 23 MPH (20 knots; 10.3 m/s)
Visibility: 6 or more miles 10+ km)
Ceiling: unknown
Clouds: missing
Weather: NSW  (no significant weather)
Text: TEMPO 0506/0512 RA BKN012
Forecast period: 0600 to 1200 UTC 05 June 2020
Forecast type: TEMPORARY: The following changes expected for less than half the time period
Visibility: missing
Ceiling: 1200 feet AGL
Clouds: broken clouds at 1200 feet AGL
Weather: RA  (moderate rain)
Text: BECMG 0509/0511 22008KT
Forecast period: 0900 to 1200 UTC 05 June 2020
Forecast type: BECOMING: Conditions expected to become as follows by 1100 UTC 05 June 2020
Winds: from the SW (220 degrees) at 9 MPH (8 knots; 4.1 m/s)
Visibility: 6 or more miles 10+ km)
Ceiling: unknown
Clouds: missing
Weather: NSW  (no significant weather)

 AIRPORT MAP

 RUNWAY INFORMATION
Runway 03 Runway length 10823 ft Runway width 148 ft
Runway elevation 478 ft Runway displaced threshold 0 ft Runway heading 26
Runway 21 Runway length 10823 ft Runway width 148 ft
Runway elevation 506 ft Runway displaced threshold 0 ft Runway heading 206

 AIRPORT FREQUENCIES
Type ATIS Name ATIS Frequency 118.375 MHZ
Type GCCD Name GND Frequency 121.9 MHZ
Type TCA Name GOTEBORG A Frequency 124.675 MHZ
Type TWR Name TWR Frequency 118.6 MHZ

 AIRPORT NEAR NAVIGATION AIDS
Type VOR-DME Name Landvetter Frequency 114600 KHZ



Powered by Virtual Airlines Manager [v2.6.2]